createdAt,value
2022-09-07T00:01:01.355Z,84.25
2022-09-07T00:03:28.259Z,84.04
2022-09-07T00:05:55.003Z,84.58
2022-09-07T00:08:24.375Z,84.62
2022-09-07T00:10:53.382Z,84.61
2022-09-07T00:13:20.345Z,84.46
2022-09-07T00:15:47.005Z,84.61
2022-09-07T00:18:13.585Z,84.59
2022-09-07T00:20:40.120Z,84.46
2022-09-07T00:23:06.900Z,84.45
2022-09-07T00:25:39.096Z,84.53
2022-09-07T00:28:08.065Z,84.88
2022-09-07T00:30:40.445Z,84.72
2022-09-07T00:33:07.001Z,85.12
2022-09-07T00:35:33.560Z,85.63
2022-09-07T00:38:00.276Z,85.44
2022-09-07T00:40:26.891Z,85.51
2022-09-07T00:42:53.464Z,85.48
2022-09-07T00:45:21.257Z,85.31
2022-09-07T00:47:54.528Z,85.31
2022-09-07T00:50:23.971Z,85.54
2022-09-07T00:52:59.954Z,85.60
2022-09-07T00:55:27.684Z,85.62
2022-09-07T00:57:56.377Z,85.59
2022-09-07T01:00:23.516Z,85.75
2022-09-07T01:02:54.178Z,85.28
2022-09-07T01:05:33.246Z,85.28
2022-09-07T01:07:59.831Z,85.49
2022-09-07T01:10:30.679Z,85.75
2022-09-07T01:12:58.265Z,85.59
2022-09-07T01:15:48.577Z,85.68
2022-09-07T01:18:33.280Z,85.46
2022-09-07T01:21:11.900Z,85.70
2022-09-07T01:24:09.142Z,85.94
2022-09-07T01:26:48.130Z,86.04
2022-09-07T01:29:39.884Z,86.01
2022-09-07T01:32:21.441Z,86.19
2022-09-07T01:34:53.289Z,85.78
2022-09-07T01:37:38.282Z,85.76
2022-09-07T01:40:15.523Z,85.57
2022-09-07T01:42:52.860Z,85.85
2022-09-07T01:45:25.593Z,86.03
2022-09-07T01:47:56.504Z,86.18
2022-09-07T01:50:32.084Z,86.25
2022-09-07T01:53:07.555Z,86.04
2022-09-07T01:55:45.611Z,86.41
2022-09-07T01:58:24.275Z,86.35
2022-09-07T02:01:07.768Z,86.27
2022-09-07T02:03:49.603Z,85.97
2022-09-07T02:06:51.937Z,86.11
2022-09-07T02:09:23.459Z,85.96
2022-09-07T02:11:50.405Z,86.13
2022-09-07T02:14:16.944Z,86.14
2022-09-07T02:17:00.312Z,86.25
2022-09-07T02:19:33.432Z,86.28
2022-09-07T02:22:05.455Z,86.52
2022-09-07T02:24:37.751Z,86.27
2022-09-07T02:27:07.808Z,86.01
2022-09-07T02:29:34.511Z,86.30
2022-09-07T02:32:01.541Z,86.47
2022-09-07T02:34:28.144Z,86.53
2022-09-07T02:36:55.729Z,87.03
2022-09-07T02:39:22.343Z,86.76
2022-09-07T02:41:48.882Z,86.61
2022-09-07T02:44:25.218Z,86.75
2022-09-07T02:47:20.418Z,86.70
2022-09-07T02:50:27.576Z,87.33
2022-09-07T02:52:56.827Z,86.89
2022-09-07T02:55:47.713Z,87.31
2022-09-07T02:58:39.890Z,87.04
2022-09-07T03:01:06.579Z,87.01
2022-09-07T03:03:54.807Z,87.03
2022-09-07T03:06:39.595Z,87.09
2022-09-07T03:09:13.150Z,87.35
2022-09-07T03:11:39.726Z,86.93
2022-09-07T03:14:22.611Z,87.51
2022-09-07T03:16:51.314Z,87.25
2022-09-07T03:19:18.463Z,87.13
2022-09-07T03:21:45.604Z,87.05
2022-09-07T03:24:12.185Z,87.39
2022-09-07T03:26:43.456Z,86.78
2022-09-07T03:29:10.077Z,86.76
2022-09-07T03:31:36.868Z,86.56
2022-09-07T03:34:04.030Z,86.71
2022-09-07T03:36:31.655Z,86.07
2022-09-07T03:39:01.420Z,85.98
2022-09-07T03:41:28.489Z,86.00
2022-09-07T03:43:55.211Z,86.35
2022-09-07T03:46:21.908Z,86.04
2022-09-07T03:48:50.171Z,85.94
2022-09-07T03:51:18.166Z,86.18
2022-09-07T03:53:46.362Z,86.31
2022-09-07T03:56:18.446Z,86.59
2022-09-07T03:58:45.785Z,86.13
2022-09-07T04:01:15.999Z,86.23
2022-09-07T04:03:43.824Z,85.89
2022-09-07T04:06:11.073Z,85.87
2022-09-07T04:08:38.543Z,85.72
2022-09-07T04:11:06.966Z,85.46
2022-09-07T04:13:35.936Z,85.92
2022-09-07T04:16:19.833Z,85.42
2022-09-07T04:18:47.001Z,85.60
2022-09-07T04:21:13.769Z,85.67
2022-09-07T04:23:41.936Z,85.66
2022-09-07T04:26:36.043Z,85.46
2022-09-07T04:29:04.223Z,85.02
2022-09-07T04:31:34.275Z,84.64
2022-09-07T04:34:01.301Z,85.09
2022-09-07T04:36:28.141Z,84.70
2022-09-07T04:38:57.474Z,84.93
2022-09-07T04:41:24.251Z,84.77
2022-09-07T04:43:54.531Z,85.10
2022-09-07T04:46:30.099Z,84.85
2022-09-07T04:48:59.221Z,84.99
2022-09-07T04:51:28.993Z,85.14
2022-09-07T04:53:57.486Z,84.45
2022-09-07T04:56:24.236Z,82.69
2022-09-07T04:58:51.498Z,80.66
2022-09-07T05:01:20.973Z,78.54
2022-09-07T05:03:48.098Z,77.40
2022-09-07T05:06:16.653Z,75.59
2022-09-07T05:08:45.839Z,75.62
2022-09-07T05:11:14.030Z,75.12
2022-09-07T05:13:40.938Z,76.33
2022-09-07T05:16:18.859Z,75.66
2022-09-07T05:18:50.048Z,75.08
2022-09-07T05:21:19.310Z,74.09
2022-09-07T05:23:49.209Z,73.75
2022-09-07T05:26:15.779Z,72.59
2022-09-07T05:28:42.455Z,71.97
2022-09-07T05:31:18.519Z,71.13
2022-09-07T05:36:33.568Z,70.95
2022-09-07T05:39:00.187Z,71.64
2022-09-07T05:41:27.403Z,72.04
2022-09-07T05:46:41.599Z,74.20
2022-09-07T05:49:08.397Z,74.28
2022-09-07T05:51:37.034Z,75.85
2022-09-07T05:54:04.111Z,76.86
2022-09-07T05:56:33.339Z,77.38
2022-09-07T05:58:59.879Z,77.79
2022-09-07T06:01:26.476Z,78.30
2022-09-07T06:03:53.088Z,76.74
2022-09-07T06:06:19.708Z,76.24
2022-09-07T06:08:49.259Z,76.10
2022-09-07T06:11:18.848Z,77.78
2022-09-07T06:13:45.505Z,79.25
2022-09-07T06:16:14.077Z,79.40
2022-09-07T06:18:43.417Z,78.78
2022-09-07T06:21:18.624Z,78.62
2022-09-07T06:23:46.235Z,78.82
2022-09-07T06:26:14.042Z,79.37
2022-09-07T06:28:49.165Z,79.46
2022-09-07T06:31:19.470Z,79.16
2022-09-07T06:33:47.848Z,80.27
2022-09-07T06:36:17.296Z,80.24
2022-09-07T06:38:44.551Z,79.10
2022-09-07T06:44:02.700Z,79.45
2022-09-07T06:49:15.981Z,79.80
2022-09-07T06:51:42.578Z,79.31
2022-09-07T06:56:56.434Z,79.12
2022-09-07T06:59:22.971Z,79.10
2022-09-07T07:01:49.626Z,78.88
2022-09-07T07:04:16.296Z,78.48
2022-09-07T07:06:42.857Z,79.10
2022-09-07T07:09:13.753Z,79.46
2022-09-07T07:11:40.398Z,79.54
2022-09-07T07:14:07.065Z,78.97
2022-09-07T07:16:33.696Z,79.50
2022-09-07T07:19:00.319Z,79.57
2022-09-07T07:21:28.933Z,79.53
2022-09-07T07:24:05.015Z,79.66
2022-09-07T07:26:34.725Z,79.94
2022-09-07T07:29:02.868Z,79.82
2022-09-07T07:31:32.648Z,79.92
2022-09-07T07:33:59.423Z,79.20
2022-09-07T07:36:27.301Z,78.36
2022-09-07T07:44:18.413Z,78.13
2022-09-07T07:46:50.660Z,77.34
2022-09-07T07:49:17.632Z,75.73
2022-09-07T07:54:34.026Z,75.07
2022-09-07T07:57:00.565Z,75.73
2022-09-07T07:59:27.085Z,75.87
2022-09-07T08:01:53.890Z,74.80
2022-09-07T08:04:20.544Z,72.35
2022-09-07T08:06:47.085Z,71.10
2022-09-07T08:09:13.624Z,72.21
2022-09-07T08:11:40.612Z,72.62
2022-09-07T08:14:08.627Z,72.62
2022-09-07T08:16:36.411Z,72.63
2022-09-07T08:19:03.507Z,72.78
2022-09-07T08:21:30.073Z,72.82
2022-09-07T08:23:56.944Z,72.95
2022-09-07T08:26:23.500Z,71.77
2022-09-07T08:28:50.047Z,71.50
2022-09-07T08:31:17.712Z,69.83
2022-09-07T08:33:45.250Z,70.24
2022-09-07T08:36:13.996Z,69.64
2022-09-07T08:38:41.079Z,69.86
2022-09-07T08:41:33.542Z,69.89
2022-09-07T08:44:03.836Z,70.15
2022-09-07T08:46:38.690Z,70.07
2022-09-07T08:49:10.705Z,70.22
2022-09-07T08:51:41.181Z,69.95
2022-09-07T08:54:12.523Z,67.71
2022-09-07T08:57:20.511Z,67.56
2022-09-07T08:59:46.736Z,68.16
2022-09-07T09:05:20.552Z,67.74
2022-09-07T09:06:11.241Z,67.09
2022-09-07T09:08:05.916Z,67.51
2022-09-07T09:11:00.427Z,67.17
2022-09-07T09:13:53.100Z,66.22
2022-09-07T09:16:30.677Z,66.15
2022-09-07T09:19:19.313Z,66.14
2022-09-07T09:21:46.061Z,65.06
2022-09-07T09:24:17.223Z,63.85
2022-09-07T09:29:22.770Z,63.85
2022-09-07T09:31:49.841Z,63.83
2022-09-07T09:34:23.827Z,63.20
2022-09-07T09:36:55.825Z,62.86
2022-09-07T09:39:36.988Z,63.09
2022-09-07T09:42:23.792Z,63.42
2022-09-07T09:44:50.875Z,63.20
2022-09-07T09:47:32.738Z,63.37
2022-09-07T09:50:04.999Z,62.89
2022-09-07T09:52:45.020Z,62.41
2022-09-07T09:55:36.142Z,61.67
2022-09-07T10:01:36.068Z,58.56
2022-09-07T10:04:38.450Z,59.10
2022-09-07T10:07:25.917Z,57.96
2022-09-07T10:09:54.468Z,58.08
2022-09-07T10:12:32.238Z,57.82
2022-09-07T10:15:01.327Z,57.22
2022-09-07T10:17:43.569Z,57.58
2022-09-07T10:20:15.458Z,56.40
2022-09-07T10:22:53.972Z,55.60
2022-09-07T10:25:41.972Z,53.31
2022-09-07T10:28:11.611Z,51.36
2022-09-07T10:30:45.810Z,50.54
2022-09-07T10:33:28.740Z,50.57
2022-09-07T10:35:58.528Z,50.23
2022-09-07T10:38:29.508Z,48.85
2022-09-07T10:41:09.701Z,48.95
2022-09-07T10:43:47.294Z,49.33
2022-09-07T10:49:21.559Z,50.04
2022-09-07T10:52:21.344Z,49.51
2022-09-07T10:55:10.177Z,50.29
2022-09-07T10:57:55.151Z,48.96
2022-09-07T11:00:22.817Z,49.48
2022-09-07T11:03:28.942Z,49.66
2022-09-07T11:06:01.429Z,49.51
2022-09-07T11:12:08.073Z,50.65
2022-09-07T11:14:42.293Z,50.24
2022-09-07T11:17:17.105Z,49.78
2022-09-07T11:19:54.778Z,48.09
2022-09-07T11:22:28.936Z,47.97
2022-09-07T11:25:32.804Z,47.38
2022-09-07T11:28:13.022Z,47.36
2022-09-07T11:30:47.705Z,45.63
2022-09-07T11:33:24.328Z,45.39
2022-09-07T11:35:58.655Z,45.78
2022-09-07T11:38:33.797Z,45.95
2022-09-07T11:41:12.123Z,46.24
2022-09-07T11:43:45.501Z,46.26
2022-09-07T11:46:22.048Z,45.80
2022-09-07T11:48:55.765Z,45.87
2022-09-07T11:51:47.299Z,46.42
2022-09-07T11:54:29.234Z,46.93
2022-09-07T11:57:10.938Z,47.22
2022-09-07T12:00:19.444Z,47.54
2022-09-07T12:03:14.057Z,47.82
2022-09-07T12:05:49.672Z,47.09
2022-09-07T12:09:01.114Z,47.39
2022-09-07T12:11:49.243Z,47.66
2022-09-07T12:14:21.916Z,46.26
2022-09-07T12:16:51.421Z,45.97
2022-09-07T12:19:28.090Z,45.57
2022-09-07T12:21:57.933Z,44.93
2022-09-07T12:24:33.757Z,44.04
2022-09-07T12:27:01.411Z,45.25
2022-09-07T12:29:29.805Z,45.77
2022-09-07T12:32:07.394Z,45.38
2022-09-07T12:34:52.263Z,45.64
2022-09-07T12:37:40.469Z,45.51
2022-09-07T12:40:34.756Z,46.12
2022-09-07T12:43:13.644Z,47.29
2022-09-07T12:45:50.785Z,47.14
2022-09-07T12:48:17.321Z,47.64
2022-09-07T12:50:59.019Z,47.93
2022-09-07T12:53:44.101Z,48.47
2022-09-07T12:56:20.164Z,48.64
2022-09-07T12:58:52.540Z,48.75
2022-09-07T13:01:41.136Z,48.63
2022-09-07T13:04:37.551Z,48.88
2022-09-07T13:07:30.778Z,48.33
2022-09-07T13:09:59.830Z,48.36
2022-09-07T13:12:54.716Z,47.11
2022-09-07T13:15:46.640Z,47.79
2022-09-07T13:18:28.593Z,47.73
2022-09-07T13:21:07.224Z,47.86
2022-09-07T13:23:41.000Z,47.71
2022-09-07T13:26:11.021Z,46.86
2022-09-07T13:28:40.669Z,46.61
2022-09-07T13:31:25.001Z,46.48
2022-09-07T13:33:53.097Z,46.59
2022-09-07T13:36:45.586Z,46.71
2022-09-07T13:39:15.805Z,46.83
2022-09-07T13:41:52.323Z,46.95
2022-09-07T13:44:26.378Z,46.52
2022-09-07T13:46:58.258Z,47.31
2022-09-07T13:49:43.389Z,47.65
2022-09-07T13:52:23.183Z,47.64
2022-09-07T13:55:20.738Z,47.12
2022-09-07T13:58:01.832Z,46.60
2022-09-07T14:00:28.817Z,46.95
2022-09-07T14:03:05.401Z,47.59
2022-09-07T14:05:32.091Z,47.47
2022-09-07T14:07:58.700Z,47.47
2022-09-07T14:10:26.606Z,47.59
2022-09-07T14:13:05.242Z,47.58
2022-09-07T14:15:42.515Z,46.69
2022-09-07T14:18:31.352Z,46.85
2022-09-07T14:20:58.779Z,46.77
2022-09-07T14:23:29.979Z,46.37
2022-09-07T14:26:17.723Z,46.58
2022-09-07T14:28:47.659Z,47.49
2022-09-07T14:31:17.315Z,47.38
2022-09-07T14:34:00.856Z,47.44
2022-09-07T14:36:44.820Z,47.93
2022-09-07T14:39:15.581Z,48.13
2022-09-07T14:41:43.281Z,48.37
2022-09-07T14:44:34.080Z,48.13
2022-09-07T14:47:19.589Z,48.68
2022-09-07T14:49:52.564Z,48.59
2022-09-07T14:52:23.586Z,48.44
2022-09-07T14:54:53.817Z,47.41
2022-09-07T14:57:30.667Z,46.62
2022-09-07T14:59:58.925Z,46.65
2022-09-07T15:02:35.641Z,44.85
2022-09-07T15:05:18.624Z,41.60
2022-09-07T15:07:52.821Z,39.69
2022-09-07T15:10:23.232Z,36.60
2022-09-07T15:12:55.148Z,37.31
2022-09-07T15:15:26.209Z,37.83
2022-09-07T15:17:59.036Z,35.71
2022-09-07T15:20:35.532Z,35.69
2022-09-07T15:23:16.256Z,37.41
2022-09-07T15:25:50.328Z,37.67
2022-09-07T15:34:10.665Z,39.51
2022-09-07T15:36:40.552Z,40.48
2022-09-07T15:39:14.667Z,41.04
2022-09-07T15:41:41.169Z,40.77
2022-09-07T15:44:09.099Z,40.30
2022-09-07T15:46:37.148Z,40.31
2022-09-07T15:49:04.694Z,40.80
2022-09-07T15:54:20.616Z,42.53
2022-09-07T15:59:34.926Z,44.49
2022-09-07T16:02:01.993Z,45.15
2022-09-07T16:04:29.415Z,45.33
2022-09-07T16:06:56.054Z,45.89
2022-09-07T16:09:22.713Z,46.00
2022-09-07T16:11:50.831Z,46.70
2022-09-07T16:14:17.703Z,46.76
2022-09-07T16:19:34.740Z,47.15
2022-09-07T16:22:01.900Z,47.28
2022-09-07T16:24:28.676Z,46.95
2022-09-07T16:26:55.270Z,46.66
2022-09-07T16:29:21.812Z,46.94
2022-09-07T16:34:34.943Z,46.24
2022-09-07T16:37:01.822Z,46.17
2022-09-07T16:39:32.031Z,45.88
2022-09-07T16:42:00.091Z,45.89
2022-09-07T16:44:26.774Z,46.01
2022-09-07T16:46:53.303Z,45.76
2022-09-07T16:49:19.891Z,45.74
2022-09-07T16:51:46.408Z,45.80
2022-09-07T16:54:13.992Z,46.57
2022-09-07T16:56:40.728Z,46.67
2022-09-07T16:59:11.432Z,45.99
2022-09-07T17:01:38.488Z,47.01
2022-09-07T17:04:10.302Z,46.90
2022-09-07T17:06:37.986Z,46.86
2022-09-07T17:09:04.723Z,47.60
2022-09-07T17:11:34.368Z,47.99
2022-09-07T17:14:01.453Z,48.27
2022-09-07T17:16:30.922Z,48.53
2022-09-07T17:21:46.567Z,49.73
2022-09-07T17:24:13.292Z,50.03
2022-09-07T17:26:42.235Z,50.11
2022-09-07T17:29:09.624Z,50.77
2022-09-07T17:34:24.356Z,50.33
2022-09-07T17:36:51.594Z,50.93
2022-09-07T17:39:19.312Z,51.07
2022-09-07T17:41:52.627Z,51.71
2022-09-07T17:44:19.592Z,52.09
2022-09-07T17:46:46.170Z,52.59
2022-09-07T17:49:14.531Z,53.37
2022-09-07T17:51:41.523Z,53.44
2022-09-07T17:54:13.256Z,52.84
2022-09-07T17:56:41.320Z,53.53
2022-09-07T18:01:55.927Z,53.93
2022-09-07T18:04:23.503Z,54.06
2022-09-07T18:06:50.515Z,54.87
2022-09-07T18:09:17.591Z,55.12
2022-09-07T18:11:45.863Z,55.34
2022-09-07T18:14:14.925Z,55.45
2022-09-07T18:16:43.694Z,55.12
2022-09-07T18:19:11.410Z,55.54
2022-09-07T18:21:40.807Z,55.71
2022-09-07T18:24:17.405Z,56.06
2022-09-07T18:26:44.717Z,56.92
2022-09-07T18:29:28.142Z,57.11
2022-09-07T18:31:55.948Z,57.38
2022-09-07T18:34:23.195Z,57.57
2022-09-07T18:36:50.215Z,57.78
2022-09-07T18:39:16.880Z,57.90
2022-09-07T18:41:43.406Z,58.23
2022-09-07T18:46:56.599Z,58.30
2022-09-07T18:49:23.531Z,59.01
2022-09-07T18:54:38.673Z,58.52
2022-09-07T18:57:06.723Z,58.90
2022-09-07T18:59:33.447Z,59.25
2022-09-07T19:02:03.910Z,59.49
2022-09-07T19:07:20.607Z,60.41
2022-09-07T19:09:48.369Z,60.81
2022-09-07T19:12:15.351Z,60.97
2022-09-07T19:14:42.348Z,61.33
2022-09-07T19:17:11.058Z,61.26
2022-09-07T19:19:38.881Z,61.74
2022-09-07T19:22:06.080Z,62.08
2022-09-07T19:24:33.288Z,62.06
2022-09-07T19:27:01.133Z,62.46
2022-09-07T19:29:28.416Z,62.65
2022-09-07T19:32:04.445Z,62.67
2022-09-07T19:34:39.034Z,63.00
2022-09-07T19:37:07.189Z,63.28
2022-09-07T19:39:34.156Z,62.63
2022-09-07T19:42:02.158Z,63.16
2022-09-07T19:44:28.699Z,63.51
2022-09-07T19:46:55.612Z,63.23
2022-09-07T19:49:22.586Z,63.52
2022-09-07T19:51:51.305Z,63.21
2022-09-07T19:54:17.866Z,63.19
2022-09-07T19:56:44.789Z,63.31
2022-09-07T19:59:12.455Z,63.65
2022-09-07T20:01:40.746Z,63.76
2022-09-07T20:04:13.786Z,63.88
2022-09-07T20:06:42.832Z,63.96
2022-09-07T20:09:09.469Z,64.18
2022-09-07T20:11:36.673Z,64.03
2022-09-07T20:14:03.759Z,64.11
2022-09-07T20:16:31.221Z,64.37
2022-09-07T20:18:59.584Z,64.69
2022-09-07T20:21:26.969Z,64.70
2022-09-07T20:23:53.651Z,65.36
2022-09-07T20:26:21.718Z,65.74
2022-09-07T20:29:10.661Z,65.61
2022-09-07T20:31:40.814Z,65.85
2022-09-07T20:34:08.869Z,65.79
2022-09-07T20:36:35.631Z,66.11
2022-09-07T20:39:02.190Z,66.55
2022-09-07T20:41:31.414Z,66.87
2022-09-07T20:44:00.053Z,66.74
2022-09-07T20:46:28.412Z,66.69
2022-09-07T20:48:55.194Z,66.95
2022-09-07T20:51:21.930Z,66.85
2022-09-07T20:53:49.776Z,66.83
2022-09-07T20:56:19.354Z,67.16
2022-09-07T20:58:47.557Z,67.18
2022-09-07T21:01:17.819Z,67.82
2022-09-07T21:03:49.638Z,67.05
2022-09-07T21:06:17.556Z,67.67
2022-09-07T21:08:45.393Z,67.65
2022-09-07T21:11:18.258Z,67.21
2022-09-07T21:13:44.947Z,67.43
2022-09-07T21:16:14.002Z,67.53
2022-09-07T21:18:41.821Z,67.38
2022-09-07T21:21:24.450Z,67.26
2022-09-07T21:23:59.505Z,67.22
2022-09-07T21:26:27.970Z,67.50
2022-09-07T21:28:59.227Z,67.50
2022-09-07T21:31:26.555Z,67.86
2022-09-07T21:33:55.543Z,68.29
2022-09-07T21:36:22.404Z,68.09
2022-09-07T21:38:50.025Z,68.45
2022-09-07T21:41:19.215Z,68.31
2022-09-07T21:43:45.781Z,68.19
2022-09-07T21:46:17.212Z,68.53
2022-09-07T21:48:45.509Z,68.35
2022-09-07T21:51:13.637Z,68.56
2022-09-07T21:53:40.776Z,68.92
2022-09-07T21:56:10.316Z,68.71
2022-09-07T21:58:36.833Z,68.56
2022-09-07T22:01:12.254Z,69.17
2022-09-07T22:03:40.503Z,68.95
2022-09-07T22:06:08.472Z,68.65
2022-09-07T22:08:36.500Z,68.87
2022-09-07T22:11:14.594Z,68.86
2022-09-07T22:13:41.582Z,68.82
2022-09-07T22:16:08.754Z,69.33
2022-09-07T22:18:37.924Z,69.25
2022-09-07T22:21:04.509Z,69.32
2022-09-07T22:23:34.656Z,69.18
2022-09-07T22:26:01.558Z,69.22
2022-09-07T22:28:31.622Z,69.83
2022-09-07T22:31:10.379Z,69.63
2022-09-07T22:33:37.380Z,69.64
2022-09-07T22:36:15.441Z,69.70
2022-09-07T22:38:43.811Z,69.64
2022-09-07T22:41:15.418Z,70.29
2022-09-07T22:49:16.172Z,70.32
2022-09-07T22:54:27.703Z,70.39
2022-09-07T22:56:54.303Z,70.70
2022-09-07T22:59:20.846Z,70.58
2022-09-07T23:01:47.413Z,70.60
2022-09-07T23:04:14.089Z,71.11
2022-09-07T23:06:42.624Z,70.77
2022-09-07T23:09:11.970Z,71.43
2022-09-07T23:11:39.181Z,71.52
2022-09-07T23:14:11.108Z,70.84
2022-09-07T23:16:37.757Z,71.20
2022-09-07T23:19:05.015Z,71.63
2022-09-07T23:21:31.660Z,71.44
2022-09-07T23:24:00.975Z,71.32
2022-09-07T23:26:30.448Z,71.52
2022-09-07T23:29:00.017Z,71.89
2022-09-07T23:31:28.197Z,71.83
2022-09-07T23:33:57.409Z,71.73
2022-09-07T23:36:24.886Z,71.92
2022-09-07T23:38:54.435Z,71.82
2022-09-07T23:41:21.181Z,71.71
2022-09-07T23:43:48.459Z,71.81
2022-09-07T23:46:16.033Z,71.89
2022-09-07T23:48:44.161Z,72.37
2022-09-07T23:51:11.544Z,72.24
2022-09-07T23:53:38.112Z,72.25
2022-09-07T23:56:05.301Z,72.45
2022-09-07T23:58:32.073Z,72.24
